• pl
  • eng

Awiacja
WIADOMOŚCI
ostatnia aktualizacja: 08.05.2017 13:35
Szanowni Państwo,

Instytut Meteorologii i Gospodarki Wodnej - Państwowy Instytut Badawczy, poszukuje kandydatów do pracy na stanowisku administracyjnym - specjalista w Centrum Meteorologicznej Osłony Lotnictwa Cywilnego - Wydziale Organizacji Meteorologicznej Osłony Lotnictwa Cywilnego w Warszawie. Szczegółowe informacje znajdują się tutaj.

TAF FC 13:30 29.06.2017
  • WIND
  • SIGNIFICANT EURO
  • SIGNIFICANT
  • SIGMET
  • AIRMET
  • TAF FC
  • TAF FT
  • METAR GG30
  • METAR GG00


TAF EPLB 291130Z 2912/2921 19015KT 9999 SCT040
TEMPO 2912/2921 4000 TSRA BKN030CB
PROB40 TEMPO 2912/2916 VRB20G35KT 2000 TSRAGR BKN015CB=

TAF EPRA 291130Z 2912/2921 15012KT CAVOK
PROB40 TEMPO 2913/2918 VRB15G35KT 4000 TSRA SHRA BKN025CB=

TAF EPSY 291130Z 2912/2921 11010KT 9999 SCT040
TEMPO 2912/2920 5000 SHRA BKN030CB
TEMPO 2913/2918 VRB15G30KT 2000 TSRA BKN020CB
PROB30 TEMPO 2913/2916 VRB20G40KT 1500 TSGR BKN015CB=

TAF EPZG 291130Z 2912/2921 16008KT 9999 SCT035
TEMPO 2912/2916 4000 SHRA BKN035CB
PROB40 TEMPO 2912/2916 VRB18G40KT 1400 +TSRAGR BKN009 BKN014CB
BECMG 2913/2916 25015G25KT
TEMPO 2916/2921 25020G40KT 4000 RA BKN014=
Awiacja.imgw.pl jest pogodowym serwisem informacyjnym
Instytutu Meteorologii i Gospodarki Wodnej Państwowego Instytutu Badawczego.
Copyright IMGW PIB 2009-2011© Wszelkie prawa zastrzeżone.